Time,TemperatureF,DewpointF,PressureIn,WindDirection,WindDirectionDegrees,WindSpeedMPH,WindSpeedGustMPH,Humidity,HourlyPrecipIn,Conditions,Clouds,dailyrainin,SoftwareType,DateUTC
2013-01-01 00:00:00,42.4,16.7,30.10,West,270,3.0,8.0,35,0.00,,,0.00,meteohub,2013-01-01 05:00:00,
2013-01-01 00:02:00,42.4,16.7,30.09,WSW,248,3.0,8.0,35,0.00,,,0.00,meteohub,2013-01-01 05:02:00,
2013-01-01 00:07:00,42.4,16.7,30.09,WNW,293,4.0,8.0,35,0.00,,,0.00,meteohub,2013-01-01 05:07:00,
2013-01-01 00:12:00,42.4,16.0,30.10,West,270,3.0,8.0,34,0.00,,,0.00,meteohub,2013-01-01 05:12:00,
2013-01-01 00:17:00,42.4,16.0,30.09,West,270,2.0,8.0,34,0.00,,,0.00,meteohub,2013-01-01 05:17:00,
2013-01-01 00:22:00,42.4,16.0,30.09,SW,225,5.0,7.0,34,0.00,,,0.00,meteohub,2013-01-01 05:22:00,
2013-01-01 00:27:00,42.6,16.2,30.09,South,180,4.0,8.0,34,0.00,,,0.00,meteohub,2013-01-01 05:27:00,
2013-01-01 00:32:00,42.6,16.2,30.09,SW,225,4.0,8.0,34,0.00,,,0.00,meteohub,2013-01-01 05:32:00,
2013-01-01 00:37:00,42.6,16.2,30.09,SW,225,6.0,8.0,34,0.00,,,0.00,meteohub,2013-01-01 05:37:00,
2013-01-01 00:42:00,42.6,15.4,30.09,NE,45,4.0,7.0,33,0.00,,,0.00,meteohub,2013-01-01 05:42:00,
2013-01-01 00:47:00,42.6,15.4,30.09,NW,315,6.0,7.0,33,0.00,,,0.00,meteohub,2013-01-01 05:47:00,
2013-01-01 00:52:00,42.6,15.4,30.09,SW,225,4.0,6.0,33,0.00,,,0.00,meteohub,2013-01-01 05:52:00,
2013-01-01 00:57:00,42.6,15.4,30.09,South,180,6.0,8.0,33,0.00,,,0.00,meteohub,2013-01-01 05:57:00,
2013-01-01 01:02:00,42.8,14.9,30.09,South,180,6.0,8.0,32,0.00,,,0.00,meteohub,2013-01-01 06:02:00,
2013-01-01 01:07:00,42.8,14.9,30.09,South,180,6.0,8.0,32,0.00,,,0.00,meteohub,2013-01-01 06:07:00,
2013-01-01 01:12:00,42.8,14.9,30.08,NW,315,4.0,8.0,32,0.00,,,0.00,meteohub,2013-01-01 06:12:00,
2013-01-01 01:17:00,42.8,14.9,30.08,South,180,5.0,6.0,32,0.00,,,0.00,meteohub,2013-01-01 06:17:00,
2013-01-01 01:22:00,43.2,13.1,30.07,NW,315,4.0,6.0,29,0.00,,,0.00,meteohub,2013-01-01 06:22:00,
2013-01-01 01:27:00,43.5,12.6,30.06,South,180,5.0,5.0,28,0.00,,,0.00,meteohub,2013-01-01 06:27:00,
2013-01-01 01:32:00,43.9,12.9,30.06,NE,45,2.0,5.0,28,0.00,,,0.00,meteohub,2013-01-01 06:32:00,
2013-01-01 01:37:00,43.9,12.9,30.06,NE,45,6.0,6.0,28,0.00,,,0.00,meteohub,2013-01-01 06:37:00,
2013-01-01 01:42:00,43.9,12.0,30.05,East,90,6.0,7.0,27,0.00,,,0.00,meteohub,2013-01-01 06:42:00,
2013-01-01 01:47:00,43.7,12.7,30.05,North,0,4.0,7.0,28,0.00,,,0.00,meteohub,2013-01-01 06:47:00,
2013-01-01 01:52:00,43.3,12.4,30.06,NW,315,7.0,7.0,28,0.00,,,0.00,meteohub,2013-01-01 06:52:00,
2013-01-01 01:57:00,43.0,12.9,30.06,SSW,203,1.0,8.0,29,0.00,,,0.00,meteohub,2013-01-01 06:57:00,
2013-01-01 02:02:00,42.8,14.2,30.07,South,180,1.0,8.0,31,0.00,,,0.00,meteohub,2013-01-01 07:02:00,
2013-01-01 02:07:00,42.4,16.0,30.07,NNE,23,3.0,8.0,34,0.00,,,0.00,meteohub,2013-01-01 07:07:00,
2013-01-01 02:12:00,42.3,16.5,30.06,South,180,2.0,3.0,35,0.00,,,0.00,meteohub,2013-01-01 07:12:00,
2013-01-01 02:17:00,42.1,18.3,30.05,South,180,2.0,3.0,38,0.00,,,0.00,meteohub,2013-01-01 07:17:00,
2013-01-01 02:22:00,41.7,19.2,30.05,SSW,203,3.0,3.0,40,0.00,,,0.00,meteohub,2013-01-01 07:22:00,
2013-01-01 02:27:00,41.4,20.5,30.05,North,0,2.0,2.0,43,0.00,,,0.00,meteohub,2013-01-01 07:27:00,
2013-01-01 02:33:00,41.2,20.8,30.06,SSE,158,3.0,3.0,44,0.00,,,0.00,meteohub,2013-01-01 07:33:00,
2013-01-01 02:38:00,41.0,20.3,30.06,East,90,4.0,4.0,43,0.00,,,0.00,meteohub,2013-01-01 07:38:00,
2013-01-01 02:43:00,41.9,17.6,30.06,NE,45,5.0,5.0,37,0.00,,,0.00,meteohub,2013-01-01 07:43:00,
2013-01-01 02:48:00,42.4,16.7,30.06,South,180,7.0,7.0,35,0.00,,,0.00,meteohub,2013-01-01 07:48:00,
2013-01-01 02:53:00,43.2,15.3,30.08,SE,135,2.0,8.0,32,0.00,,,0.00,meteohub,2013-01-01 07:53:00,
2013-01-01 02:58:00,43.7,14.4,30.07,East,90,1.0,8.0,30,0.00,,,0.00,meteohub,2013-01-01 07:58:00,
2013-01-01 03:03:00,43.7,14.4,30.07,West,270,3.0,8.0,30,0.00,,,0.00,meteohub,2013-01-01 08:03:00,
2013-01-01 03:08:00,44.1,13.8,30.07,South,180,9.0,9.0,29,0.00,,,0.00,meteohub,2013-01-01 08:08:00,
2013-01-01 03:13:00,44.1,13.1,30.06,North,0,2.0,9.0,28,0.00,,,0.00,meteohub,2013-01-01 08:13:00,
2013-01-01 03:18:00,44.1,14.5,30.06,SE,135,4.0,9.0,30,0.00,,,0.00,meteohub,2013-01-01 08:18:00,
2013-01-01 03:23:00,43.9,14.4,30.06,North,0,2.0,9.0,30,0.00,,,0.00,meteohub,2013-01-01 08:23:00,
2013-01-01 03:28:00,44.1,15.3,30.05,South,180,2.0,7.0,31,0.00,,,0.00,meteohub,2013-01-01 08:28:00,
2013-01-01 03:33:00,44.2,16.2,30.06,North,0,2.0,7.0,32,0.00,,,0.00,meteohub,2013-01-01 08:33:00,
2013-01-01 03:38:00,44.2,16.9,30.06,North,0,10.0,10.0,33,0.00,,,0.00,meteohub,2013-01-01 08:38:00,
2013-01-01 03:43:00,44.2,17.6,30.07,NW,315,8.0,10.0,34,0.00,,,0.00,meteohub,2013-01-01 08:43:00,
2013-01-01 03:48:00,44.4,18.5,30.07,NE,45,4.0,14.0,35,0.00,,,0.00,meteohub,2013-01-01 08:48:00,
2013-01-01 03:53:00,44.4,19.0,30.07,North,0,5.0,14.0,36,0.00,,,0.00,meteohub,2013-01-01 08:53:00,
2013-01-01 03:58:00,44.4,19.8,30.07,NE,45,5.0,14.0,37,0.00,,,0.00,meteohub,2013-01-01 08:58:00,
2013-01-01 04:03:00,44.2,20.8,30.07,NE,45,8.0,15.0,39,0.00,,,0.00,meteohub,2013-01-01 09:03:00,
2013-01-01 04:08:00,44.2,22.6,30.07,North,0,8.0,15.0,42,0.00,,,0.00,meteohub,2013-01-01 09:08:00,
2013-01-01 04:13:00,43.9,23.9,30.06,North,0,6.0,15.0,45,0.00,,,0.00,meteohub,2013-01-01 09:13:00,
2013-01-01 04:18:00,43.7,24.8,30.06,SW,225,4.0,13.0,47,0.00,,,0.00,meteohub,2013-01-01 09:18:00,
2013-01-01 04:23:00,43.2,26.8,30.06,West,270,2.0,13.0,52,0.00,,,0.00,meteohub,2013-01-01 09:23:00,
2013-01-01 04:28:00,43.0,27.5,30.05,South,180,3.0,8.0,54,0.00,,,0.00,meteohub,2013-01-01 09:28:00,
2013-01-01 04:33:00,42.8,27.7,30.07,North,0,2.0,8.0,55,0.00,,,0.00,meteohub,2013-01-01 09:33:00,
2013-01-01 04:38:00,42.6,28.4,30.06,West,270,4.0,7.0,57,0.00,,,0.00,meteohub,2013-01-01 09:38:00,
2013-01-01 04:43:00,42.4,28.2,30.07,South,180,2.0,7.0,57,0.00,,,0.00,meteohub,2013-01-01 09:43:00,
2013-01-01 04:48:00,42.4,28.2,30.06,NW,315,2.0,4.0,57,0.00,,,0.00,meteohub,2013-01-01 09:48:00,
2013-01-01 04:53:00,42.3,28.0,30.04,NE,45,2.0,4.0,57,0.00,,,0.00,meteohub,2013-01-01 09:53:00,
2013-01-01 04:59:00,42.3,28.6,30.05,South,180,2.0,3.0,58,0.00,,,0.00,meteohub,2013-01-01 09:59:00,
2013-01-01 05:04:00,41.9,30.6,30.06,West,270,2.0,3.0,64,0.00,,,0.00,meteohub,2013-01-01 10:04:00,
2013-01-01 05:09:00,41.4,30.9,30.06,NE,45,2.0,3.0,66,0.00,,,0.00,meteohub,2013-01-01 10:09:00,
2013-01-01 05:14:00,41.0,30.9,30.05,South,180,2.0,3.0,67,0.00,,,0.00,meteohub,2013-01-01 10:14:00,
2013-01-01 05:19:00,40.8,30.7,30.05,South,180,2.0,3.0,67,0.00,,,0.00,meteohub,2013-01-01 10:19:00,
2013-01-01 05:24:00,40.8,30.4,30.04,SW,225,1.0,2.0,66,0.00,,,0.00,meteohub,2013-01-01 10:24:00,
2013-01-01 05:29:00,40.8,30.7,30.04,South,180,2.0,2.0,67,0.00,,,0.00,meteohub,2013-01-01 10:29:00,
2013-01-01 05:34:00,40.6,31.3,30.04,South,180,2.0,3.0,69,0.00,,,0.00,meteohub,2013-01-01 10:34:00,
2013-01-01 05:39:00,40.5,31.5,30.04,NW,315,2.0,3.0,70,0.00,,,0.00,meteohub,2013-01-01 10:39:00,
2013-01-01 05:44:00,40.3,31.3,30.04,South,180,2.0,3.0,70,0.00,,,0.00,meteohub,2013-01-01 10:44:00,
2013-01-01 05:49:00,40.1,31.5,30.04,East,90,0.0,2.0,71,0.00,,,0.00,meteohub,2013-01-01 10:49:00,
2013-01-01 05:54:00,40.1,31.8,30.05,South,180,1.0,2.0,72,0.00,,,0.00,meteohub,2013-01-01 10:54:00,
2013-01-01 05:59:00,40.1,30.7,30.05,SSE,158,1.0,2.0,69,0.00,,,0.00,meteohub,2013-01-01 10:59:00,
2013-01-01 06:04:00,40.3,30.2,30.04,North,0,2.0,2.0,67,0.00,,,0.00,meteohub,2013-01-01 11:04:00,
2013-01-01 06:09:00,40.6,29.8,30.04,West,270,2.0,2.0,65,0.00,,,0.00,meteohub,2013-01-01 11:09:00,
2013-01-01 06:14:00,40.8,30.0,30.04,South,180,2.0,4.0,65,0.00,,,0.00,meteohub,2013-01-01 11:14:00,
2013-01-01 06:19:00,40.8,29.7,30.03,SW,225,2.0,4.0,64,0.00,,,0.00,meteohub,2013-01-01 11:19:00,
2013-01-01 06:24:00,40.8,29.7,30.04,SW,225,2.0,4.0,64,0.00,,,0.00,meteohub,2013-01-01 11:24:00,
2013-01-01 06:29:00,40.8,29.7,30.04,SE,135,1.0,2.0,64,0.00,,,0.00,meteohub,2013-01-01 11:29:00,
2013-01-01 06:34:00,40.6,30.2,30.04,NW,315,1.0,2.0,66,0.00,,,0.00,meteohub,2013-01-01 11:34:00,
2013-01-01 06:39:00,40.5,30.4,30.04,SE,135,1.0,2.0,67,0.00,,,0.00,meteohub,2013-01-01 11:39:00,
2013-01-01 06:44:00,40.1,30.7,30.03,South,180,2.0,2.0,69,0.00,,,0.00,meteohub,2013-01-01 11:44:00,
2013-01-01 06:49:00,39.9,30.6,30.03,SW,225,1.0,2.0,69,0.00,,,0.00,meteohub,2013-01-01 11:49:00,
2013-01-01 06:54:00,39.9,30.9,30.03,SW,225,0.0,2.0,70,0.00,,,0.00,meteohub,2013-01-01 11:54:00,
2013-01-01 06:59:00,39.7,31.5,30.03,North,0,0.0,2.0,72,0.00,,,0.00,meteohub,2013-01-01 11:59:00,
2013-01-01 07:04:00,39.7,31.8,30.04,North,0,0.0,2.0,73,0.00,,,0.00,meteohub,2013-01-01 12:04:00,
2013-01-01 07:09:00,39.7,32.2,30.04,NW,315,1.0,2.0,74,0.00,,,0.00,meteohub,2013-01-01 12:09:00,
2013-01-01 07:14:00,39.7,32.5,30.04,South,180,2.0,2.0,75,0.00,,,0.00,meteohub,2013-01-01 12:14:00,
2013-01-01 07:19:00,39.7,32.5,30.04,South,180,2.0,2.0,75,0.00,,,0.00,meteohub,2013-01-01 12:19:00,
2013-01-01 07:24:00,39.7,32.7,30.04,South,180,2.0,2.0,76,0.00,,,0.00,meteohub,2013-01-01 12:24:00,
2013-01-01 07:29:00,39.7,32.7,30.04,West,270,1.0,2.0,76,0.00,,,0.00,meteohub,2013-01-01 12:29:00,
2013-01-01 07:35:00,40.1,32.5,30.04,West,270,1.0,3.0,74,0.00,,,0.00,meteohub,2013-01-01 12:35:00,
2013-01-01 07:40:00,40.3,31.6,30.04,South,180,2.0,3.0,71,0.00,,,0.00,meteohub,2013-01-01 12:40:00,
2013-01-01 07:45:00,40.5,31.5,30.04,West,270,2.0,6.0,70,0.00,,,0.00,meteohub,2013-01-01 12:45:00,
2013-01-01 07:50:00,40.5,31.1,30.04,South,180,1.0,6.0,69,0.00,,,0.00,meteohub,2013-01-01 12:50:00,
2013-01-01 07:55:00,40.5,30.7,30.04,NE,45,1.0,6.0,68,0.00,,,0.00,meteohub,2013-01-01 12:55:00,
2013-01-01 08:00:00,40.5,30.7,30.04,SW,225,1.0,2.0,68,0.00,,,0.00,meteohub,2013-01-01 13:00:00,
2013-01-01 08:05:00,40.6,30.6,30.02,SE,135,1.0,2.0,67,0.00,,,0.00,meteohub,2013-01-01 13:05:00,
2013-01-01 08:10:00,40.6,30.6,30.04,South,180,2.0,2.0,67,0.00,,,0.00,meteohub,2013-01-01 13:10:00,
2013-01-01 08:15:00,40.8,30.7,30.04,South,180,3.0,3.0,67,0.00,,,0.00,meteohub,2013-01-01 13:15:00,
2013-01-01 08:20:00,41.0,30.2,30.04,NE,45,2.0,2.0,65,0.00,,,0.00,meteohub,2013-01-01 13:20:00,
2013-01-01 08:25:00,41.2,30.0,30.04,NW,315,2.0,4.0,64,0.00,,,0.00,meteohub,2013-01-01 13:25:00,
2013-01-01 08:30:00,41.4,30.0,30.05,SW,225,2.0,4.0,64,0.00,,,0.00,meteohub,2013-01-01 13:30:00,
2013-01-01 08:35:00,41.4,30.0,30.05,South,180,2.0,5.0,64,0.00,,,0.00,meteohub,2013-01-01 13:35:00,
2013-01-01 08:40:00,41.5,30.2,30.05,NE,45,3.0,5.0,64,0.00,,,0.00,meteohub,2013-01-01 13:40:00,
2013-01-01 08:45:00,41.7,30.4,30.03,NE,45,3.0,5.0,64,0.00,,,0.00,meteohub,2013-01-01 13:45:00,
2013-01-01 08:50:00,41.7,30.4,30.00,North,0,4.0,4.0,64,0.00,,,0.00,meteohub,2013-01-01 13:50:00,
2013-01-01 08:55:00,41.9,30.6,30.05,SSE,158,2.0,4.0,64,0.00,,,0.00,meteohub,2013-01-01 13:55:00,
2013-01-01 09:00:00,42.1,31.1,30.04,North,0,7.0,7.0,65,0.00,,,0.00,meteohub,2013-01-01 14:00:00,
2013-01-01 09:05:00,42.1,31.1,30.01,North,0,7.0,7.0,65,0.00,,,0.00,meteohub,2013-01-01 14:05:00,
2013-01-01 09:10:00,42.6,31.6,30.03,South,180,2.0,7.0,65,0.00,,,0.00,meteohub,2013-01-01 14:10:00,
2013-01-01 09:15:00,42.8,31.8,30.04,SE,135,3.0,7.0,65,0.00,,,0.00,meteohub,2013-01-01 14:15:00,
2013-01-01 09:20:00,42.8,32.2,30.03,SW,225,2.0,7.0,66,0.00,,,0.00,meteohub,2013-01-01 14:20:00,
2013-01-01 09:25:00,43.2,33.3,30.04,NW,315,8.0,8.0,68,0.00,,,0.00,meteohub,2013-01-01 14:25:00,
2013-01-01 09:30:00,43.5,33.6,30.04,South,180,5.0,8.0,68,0.00,,,0.00,meteohub,2013-01-01 14:30:00,
2013-01-01 09:35:00,43.7,34.5,30.04,South,180,5.0,8.0,70,0.00,,,0.00,meteohub,2013-01-01 14:35:00,
2013-01-01 09:40:00,44.1,34.9,30.04,South,180,4.0,8.0,70,0.00,,,0.00,meteohub,2013-01-01 14:40:00,
2013-01-01 09:45:00,44.4,35.6,30.04,South,180,4.0,8.0,71,0.00,,,0.00,meteohub,2013-01-01 14:45:00,
2013-01-01 09:50:00,44.8,36.0,30.03,West,270,4.0,8.0,71,0.00,,,0.00,meteohub,2013-01-01 14:50:00,
2013-01-01 09:55:00,45.0,36.1,30.02,West,270,4.0,4.0,71,0.00,,,0.00,meteohub,2013-01-01 14:55:00,
2013-01-01 10:00:00,45.3,36.9,30.01,North,0,5.0,5.0,72,0.00,,,0.00,meteohub,2013-01-01 15:00:00,
2013-01-01 10:05:00,45.7,37.2,30.01,NW,315,2.0,5.0,72,0.00,,,0.00,meteohub,2013-01-01 15:05:00,
2013-01-01 10:10:00,45.9,37.8,30.04,South,180,4.0,8.0,73,0.00,,,0.00,meteohub,2013-01-01 15:10:00,
2013-01-01 10:15:00,46.0,37.9,30.04,NNW,338,4.0,8.0,73,0.00,,,0.00,meteohub,2013-01-01 15:15:00,
2013-01-01 10:20:00,46.0,37.6,30.03,SE,135,6.0,10.0,72,0.00,,,0.00,meteohub,2013-01-01 15:20:00,
2013-01-01 10:25:00,46.2,37.8,30.02,South,180,6.0,10.0,72,0.00,,,0.00,meteohub,2013-01-01 15:25:00,
2013-01-01 10:30:00,46.4,38.3,30.01,SE,135,6.0,10.0,73,0.00,,,0.00,meteohub,2013-01-01 15:30:00,
2013-01-01 10:35:00,46.6,38.5,30.01,South,180,3.0,6.0,73,0.00,,,0.00,meteohub,2013-01-01 15:35:00,
2013-01-01 10:40:00,46.8,38.5,30.01,North,0,3.0,6.0,73,0.00,,,0.00,meteohub,2013-01-01 15:40:00,
2013-01-01 10:45:00,46.9,38.7,30.02,South,180,4.0,6.0,73,0.00,,,0.00,meteohub,2013-01-01 15:45:00,
2013-01-01 10:50:00,46.9,38.7,30.03,SE,135,2.0,8.0,73,0.00,,,0.00,meteohub,2013-01-01 15:50:00,
2013-01-01 10:55:00,47.1,38.8,30.02,ENE,68,3.0,8.0,73,0.00,,,0.00,meteohub,2013-01-01 15:55:00,
2013-01-01 11:00:00,47.3,39.4,30.02,NE,45,6.0,6.0,74,0.00,,,0.00,meteohub,2013-01-01 16:00:00,
2013-01-01 11:05:00,47.5,39.2,30.02,SE,135,3.0,7.0,73,0.00,,,0.00,meteohub,2013-01-01 16:05:00,
2013-01-01 11:10:00,47.5,39.2,30.03,NW,315,8.0,8.0,73,0.00,,,0.00,meteohub,2013-01-01 16:10:00,
2013-01-01 11:15:00,47.5,39.2,30.02,SW,225,4.0,8.0,73,0.00,,,0.00,meteohub,2013-01-01 16:15:00,
2013-01-01 11:20:00,47.5,39.2,30.02,SE,135,3.0,8.0,73,0.00,,,0.00,meteohub,2013-01-01 16:20:00,
2013-01-01 11:25:00,47.5,39.2,30.01,North,0,3.0,8.0,73,0.00,,,0.00,meteohub,2013-01-01 16:25:00,
2013-01-01 11:31:00,47.8,39.9,29.99,South,180,5.0,7.0,74,0.00,,,0.00,meteohub,2013-01-01 16:31:00,
2013-01-01 11:36:00,48.0,40.1,30.00,North,0,2.0,7.0,74,0.00,,,0.00,meteohub,2013-01-01 16:36:00,
2013-01-01 11:41:00,48.0,40.1,29.98,East,90,3.0,7.0,74,0.00,,,0.00,meteohub,2013-01-01 16:41:00,
2013-01-01 11:46:00,48.2,39.9,29.98,NE,45,2.0,5.0,73,0.00,,,0.00,meteohub,2013-01-01 16:46:00,
2013-01-01 11:51:00,48.4,40.1,30.00,SW,225,2.0,4.0,73,0.00,,,0.00,meteohub,2013-01-01 16:51:00,
2013-01-01 11:56:00,48.7,40.5,30.00,NE,45,2.0,4.0,73,0.00,,,0.00,meteohub,2013-01-01 16:56:00,
2013-01-01 12:01:00,49.1,40.8,29.95,NE,45,5.0,10.0,73,0.00,,,0.00,meteohub,2013-01-01 17:01:00,
2013-01-01 12:06:00,49.3,41.0,29.99,North,0,3.0,10.0,73,0.00,,,0.00,meteohub,2013-01-01 17:06:00,
2013-01-01 12:11:00,49.1,40.5,29.98,NE,45,4.0,10.0,72,0.00,,,0.00,meteohub,2013-01-01 17:11:00,
2013-01-01 12:16:00,49.1,40.5,29.97,NW,315,2.0,9.0,72,0.00,,,0.00,meteohub,2013-01-01 17:16:00,
2013-01-01 12:21:00,49.1,40.8,29.97,NW,315,3.0,4.0,73,0.00,,,0.00,meteohub,2013-01-01 17:21:00,
2013-01-01 12:26:00,49.3,41.4,29.97,NW,315,2.0,4.0,74,0.00,,,0.00,meteohub,2013-01-01 17:26:00,
2013-01-01 12:31:00,49.5,41.5,29.97,NE,45,2.0,7.0,74,0.00,,,0.00,meteohub,2013-01-01 17:31:00,
2013-01-01 12:36:00,49.5,41.2,29.98,South,180,3.0,7.0,73,0.00,,,0.00,meteohub,2013-01-01 17:36:00,
2013-01-01 12:41:00,49.5,41.5,29.97,East,90,3.0,7.0,74,0.00,,,0.00,meteohub,2013-01-01 17:41:00,
2013-01-01 12:46:00,49.5,41.5,29.96,South,180,4.0,5.0,74,0.00,,,0.00,meteohub,2013-01-01 17:46:00,
2013-01-01 12:51:00,49.6,41.7,29.96,West,270,3.0,5.0,74,0.00,,,0.00,meteohub,2013-01-01 17:51:00,
2013-01-01 12:56:00,49.6,41.7,29.96,NE,45,2.0,5.0,74,0.00,,,0.00,meteohub,2013-01-01 17:56:00,
2013-01-01 13:01:00,49.6,41.7,29.93,East,90,3.0,4.0,74,0.00,,,0.00,meteohub,2013-01-01 18:01:00,
2013-01-01 13:06:00,49.6,41.7,29.96,East,90,2.0,5.0,74,0.00,,,0.00,meteohub,2013-01-01 18:06:00,
2013-01-01 13:11:00,49.6,41.7,29.95,East,90,1.0,5.0,74,0.00,,,0.00,meteohub,2013-01-01 18:11:00,
2013-01-01 13:16:00,49.6,41.7,29.95,North,0,2.0,4.0,74,0.00,,,0.00,meteohub,2013-01-01 18:16:00,
2013-01-01 13:21:00,49.5,41.5,29.96,NW,315,2.0,2.0,74,0.00,,,0.00,meteohub,2013-01-01 18:21:00,
2013-01-01 13:26:00,49.6,41.7,29.96,NNW,338,4.0,4.0,74,0.00,,,0.00,meteohub,2013-01-01 18:26:00,
2013-01-01 13:31:00,49.5,41.5,29.95,NW,315,3.0,4.0,74,0.00,,,0.00,meteohub,2013-01-01 18:31:00,
2013-01-01 13:36:00,49.5,41.5,29.95,NW,315,5.0,5.0,74,0.00,,,0.00,meteohub,2013-01-01 18:36:00,
2013-01-01 13:41:00,49.3,41.0,29.94,NW,315,3.0,7.0,73,0.00,,,0.00,meteohub,2013-01-01 18:41:00,
2013-01-01 13:46:00,49.1,41.2,29.95,NW,315,4.0,7.0,74,0.00,,,0.00,meteohub,2013-01-01 18:46:00,
2013-01-01 13:51:00,49.1,41.2,29.95,SE,135,2.0,7.0,74,0.00,,,0.00,meteohub,2013-01-01 18:51:00,
2013-01-01 13:56:00,48.9,41.0,29.94,North,0,2.0,7.0,74,0.00,,,0.00,meteohub,2013-01-01 18:56:00,
2013-01-01 14:01:00,48.9,41.0,29.94,North,0,2.0,5.0,74,0.00,,,0.00,meteohub,2013-01-01 19:01:00,
2013-01-01 14:06:00,48.9,41.0,29.94,North,0,2.0,3.0,74,0.00,,,0.00,meteohub,2013-01-01 19:06:00,
2013-01-01 14:11:00,48.9,41.0,29.93,North,0,4.0,4.0,74,0.00,,,0.00,meteohub,2013-01-01 19:11:00,
2013-01-01 14:16:00,48.9,41.0,29.93,South,180,2.0,5.0,74,0.00,,,0.00,meteohub,2013-01-01 19:16:00,
2013-01-01 14:21:00,49.1,41.2,29.93,North,0,0.0,5.0,74,0.00,,,0.00,meteohub,2013-01-01 19:21:00,
2013-01-01 14:26:00,49.1,41.2,29.93,North,0,0.0,5.0,74,0.00,,,0.00,meteohub,2013-01-01 19:26:00,
2013-01-01 14:31:00,49.3,41.4,29.93,South,180,2.0,2.0,74,0.00,,,0.00,meteohub,2013-01-01 19:31:00,
2013-01-01 14:36:00,49.3,41.4,29.94,West,270,0.0,2.0,74,0.00,,,0.00,meteohub,2013-01-01 19:36:00,
2013-01-01 14:41:00,49.3,41.4,29.93,North,0,2.0,2.0,74,0.00,,,0.00,meteohub,2013-01-01 19:41:00,
2013-01-01 14:46:00,49.3,41.4,29.94,North,0,2.0,3.0,74,0.00,,,0.00,meteohub,2013-01-01 19:46:00,
2013-01-01 14:51:00,49.3,41.4,29.94,SE,135,1.0,3.0,74,0.00,,,0.00,meteohub,2013-01-01 19:51:00,
2013-01-01 14:56:00,49.3,41.4,29.95,East,90,1.0,3.0,74,0.00,,,0.00,meteohub,2013-01-01 19:56:00,
2013-01-01 15:01:00,49.3,41.4,29.95,SE,135,1.0,2.0,74,0.00,,,0.00,meteohub,2013-01-01 20:01:00,
2013-01-01 15:06:00,49.3,41.4,29.96,North,0,4.0,4.0,74,0.00,,,0.00,meteohub,2013-01-01 20:06:00,
2013-01-01 15:11:00,49.3,41.4,29.96,North,0,3.0,4.0,74,0.00,,,0.00,meteohub,2013-01-01 20:11:00,
2013-01-01 15:16:00,49.3,41.4,29.96,North,0,6.0,6.0,74,0.00,,,0.00,meteohub,2013-01-01 20:16:00,
2013-01-01 15:22:00,49.1,41.2,29.96,NW,315,7.0,7.0,74,0.00,,,0.00,meteohub,2013-01-01 20:22:00,
2013-01-01 15:27:00,48.7,40.1,29.96,North,0,6.0,11.0,72,0.00,,,0.00,meteohub,2013-01-01 20:27:00,
2013-01-01 15:32:00,48.4,39.7,29.97,NW,315,8.0,11.0,72,0.00,,,0.00,meteohub,2013-01-01 20:32:00,
2013-01-01 15:37:00,47.8,39.6,29.97,North,0,6.0,8.0,73,0.00,,,0.00,meteohub,2013-01-01 20:37:00,
2013-01-01 15:42:00,47.7,39.7,29.97,West,270,4.0,8.0,74,0.00,,,0.00,meteohub,2013-01-01 20:42:00,
2013-01-01 15:47:00,47.7,40.1,29.96,NW,315,2.0,8.0,75,0.00,,,0.00,meteohub,2013-01-01 20:47:00,
2013-01-01 15:52:00,47.5,39.9,29.96,NW,315,4.0,8.0,75,0.00,,,0.00,meteohub,2013-01-01 20:52:00,
2013-01-01 15:57:00,47.7,40.1,29.97,North,0,4.0,4.0,75,0.00,,,0.00,meteohub,2013-01-01 20:57:00,
2013-01-01 16:02:00,47.7,40.1,29.97,North,0,2.0,7.0,75,0.00,,,0.00,meteohub,2013-01-01 21:02:00,
2013-01-01 16:07:00,47.7,40.1,29.96,NW,315,3.0,12.0,75,0.00,,,0.00,meteohub,2013-01-01 21:07:00,
2013-01-01 16:12:00,47.8,40.3,29.96,North,0,4.0,12.0,75,0.00,,,0.00,meteohub,2013-01-01 21:12:00,
2013-01-01 16:17:00,47.7,40.1,29.97,NNW,338,6.0,6.0,75,0.00,,,0.00,meteohub,2013-01-01 21:17:00,
2013-01-01 16:22:00,47.7,40.1,29.97,WNW,293,2.0,10.0,75,0.00,,,0.00,meteohub,2013-01-01 21:22:00,
2013-01-01 16:27:00,47.7,40.1,29.97,East,90,6.0,10.0,75,0.00,,,0.00,meteohub,2013-01-01 21:27:00,
2013-01-01 16:32:00,47.7,40.1,29.97,NW,315,8.0,9.0,75,0.00,,,0.00,meteohub,2013-01-01 21:32:00,
2013-01-01 16:37:00,47.5,39.9,29.98,WNW,293,4.0,12.0,75,0.00,,,0.00,meteohub,2013-01-01 21:37:00,
2013-01-01 16:42:00,47.5,39.9,29.98,North,0,3.0,12.0,75,0.00,,,0.00,meteohub,2013-01-01 21:42:00,
2013-01-01 16:47:00,47.5,39.9,29.99,NW,315,4.0,8.0,75,0.00,,,0.00,meteohub,2013-01-01 21:47:00,
2013-01-01 16:52:00,47.5,39.9,29.99,North,0,5.0,7.0,75,0.00,,,0.00,meteohub,2013-01-01 21:52:00,
2013-01-01 16:57:00,47.1,39.6,29.99,North,0,8.0,8.0,75,0.00,,,0.00,meteohub,2013-01-01 21:57:00,
2013-01-01 17:02:00,46.8,39.2,29.98,NNW,338,8.0,9.0,75,0.00,,,0.00,meteohub,2013-01-01 22:02:00,
2013-01-01 17:07:00,46.4,38.8,29.99,NW,315,7.0,9.0,75,0.00,,,0.00,meteohub,2013-01-01 22:07:00,
2013-01-01 17:12:00,46.2,38.7,29.99,NW,315,5.0,9.0,75,0.00,,,0.00,meteohub,2013-01-01 22:12:00,
2013-01-01 17:17:00,46.0,38.8,29.99,North,0,7.0,8.0,76,0.00,,,0.00,meteohub,2013-01-01 22:17:00,
2013-01-01 17:22:00,45.9,38.7,29.99,North,0,6.0,8.0,76,0.00,,,0.00,meteohub,2013-01-01 22:22:00,
2013-01-01 17:27:00,45.5,38.3,29.99,North,0,7.0,8.0,76,0.00,,,0.00,meteohub,2013-01-01 22:27:00,
2013-01-01 17:32:00,45.5,38.3,29.99,NW,315,7.0,10.0,76,0.00,,,0.00,meteohub,2013-01-01 22:32:00,
2013-01-01 17:37:00,45.3,38.1,29.99,NW,315,8.0,10.0,76,0.00,,,0.00,meteohub,2013-01-01 22:37:00,
2013-01-01 17:42:00,45.3,38.5,29.99,North,0,5.0,8.0,77,0.00,,,0.00,meteohub,2013-01-01 22:42:00,
2013-01-01 17:47:00,45.1,38.3,29.99,North,0,4.0,8.0,77,0.00,,,0.00,meteohub,2013-01-01 22:47:00,
2013-01-01 17:52:00,45.1,38.3,29.99,North,0,4.0,8.0,77,0.00,,,0.00,meteohub,2013-01-01 22:52:00,
2013-01-01 17:57:00,45.1,38.3,30.00,NW,315,3.0,7.0,77,0.00,,,0.00,meteohub,2013-01-01 22:57:00,
2013-01-01 18:02:00,45.1,37.9,30.00,NNW,338,12.0,13.0,76,0.00,,,0.00,meteohub,2013-01-01 23:02:00,
2013-01-01 18:07:00,45.1,37.9,30.01,North,0,10.0,13.0,76,0.00,,,0.00,meteohub,2013-01-01 23:07:00,
2013-01-01 18:12:00,45.1,37.8,30.01,NW,315,8.0,13.0,75,0.00,,,0.00,meteohub,2013-01-01 23:12:00,
2013-01-01 18:17:00,45.1,37.8,30.01,North,0,5.0,15.0,75,0.00,,,0.00,meteohub,2013-01-01 23:17:00,
2013-01-01 18:22:00,45.1,37.4,30.01,NW,315,16.0,16.0,74,0.00,,,0.00,meteohub,2013-01-01 23:22:00,
2013-01-01 18:27:00,45.3,37.2,30.01,SE,135,4.0,17.0,73,0.00,,,0.00,meteohub,2013-01-01 23:27:00,
2013-01-01 18:32:00,45.3,37.2,30.00,NE,45,6.0,17.0,73,0.00,,,0.00,meteohub,2013-01-01 23:32:00,
2013-01-01 18:37:00,45.3,36.9,30.01,NE,45,6.0,16.0,72,0.00,,,0.00,meteohub,2013-01-01 23:37:00,
2013-01-01 18:42:00,45.3,36.9,30.01,South,180,2.0,8.0,72,0.00,,,0.00,meteohub,2013-01-01 23:42:00,
2013-01-01 18:47:00,45.3,36.9,30.02,SW,225,11.0,11.0,72,0.00,,,0.00,meteohub,2013-01-01 23:47:00,
2013-01-01 18:52:00,45.3,36.5,30.01,South,180,5.0,11.0,71,0.00,,,0.00,meteohub,2013-01-01 23:52:00,
2013-01-01 18:57:00,45.1,36.3,30.01,South,180,3.0,11.0,71,0.00,,,0.00,meteohub,2013-01-01 23:57:00,
2013-01-01 19:02:00,45.3,36.5,30.00,NE,45,3.0,11.0,71,0.00,,,0.00,meteohub,2013-01-02 00:02:00,
2013-01-01 19:07:00,45.3,36.5,30.01,NE,45,3.0,8.0,71,0.00,,,0.00,meteohub,2013-01-02 00:07:00,
2013-01-01 19:12:00,45.1,36.3,30.01,SW,225,2.0,8.0,71,0.00,,,0.00,meteohub,2013-01-02 00:12:00,
2013-01-01 19:17:00,45.1,36.3,30.01,South,180,3.0,4.0,71,0.00,,,0.00,meteohub,2013-01-02 00:17:00,
2013-01-01 19:22:00,45.1,36.3,30.01,South,180,6.0,6.0,71,0.00,,,0.00,meteohub,2013-01-02 00:22:00,
2013-01-01 19:27:00,45.1,36.3,30.00,South,180,2.0,6.0,71,0.00,,,0.00,meteohub,2013-01-02 00:27:00,
2013-01-01 19:32:00,45.0,36.1,30.00,NW,315,2.0,6.0,71,0.00,,,0.00,meteohub,2013-01-02 00:32:00,
2013-01-01 19:37:00,45.0,36.1,30.00,South,180,2.0,6.0,71,0.00,,,0.00,meteohub,2013-01-02 00:37:00,
2013-01-01 19:42:00,44.6,36.1,30.00,South,180,2.0,2.0,72,0.00,,,0.00,meteohub,2013-01-02 00:42:00,
2013-01-01 19:47:00,44.6,36.1,30.00,SW,225,1.0,2.0,72,0.00,,,0.00,meteohub,2013-01-02 00:47:00,
2013-01-01 19:52:00,44.4,36.7,30.00,SSE,158,2.0,2.0,74,0.00,,,0.00,meteohub,2013-01-02 00:52:00,
2013-01-01 19:57:00,44.2,36.5,29.99,East,90,1.0,2.0,74,0.00,,,0.00,meteohub,2013-01-02 00:57:00,
2013-01-01 20:02:00,44.2,36.5,29.99,NW,315,1.0,2.0,74,0.00,,,0.00,meteohub,2013-01-02 01:02:00,
2013-01-01 20:07:00,44.4,37.0,29.99,SE,135,2.0,2.0,75,0.00,,,0.00,meteohub,2013-01-02 01:07:00,
2013-01-01 20:12:00,44.4,37.0,29.99,SW,225,2.0,2.0,75,0.00,,,0.00,meteohub,2013-01-02 01:12:00,
2013-01-01 20:17:00,44.4,37.0,29.99,South,180,2.0,2.0,75,0.00,,,0.00,meteohub,2013-01-02 01:17:00,
2013-01-01 20:22:00,44.4,37.0,29.99,NW,315,2.0,2.0,75,0.00,,,0.00,meteohub,2013-01-02 01:22:00,
2013-01-01 20:27:00,44.6,36.9,29.99,SW,225,4.0,4.0,74,0.00,,,0.00,meteohub,2013-01-02 01:27:00,
2013-01-01 20:32:00,44.8,37.0,30.00,South,180,3.0,5.0,74,0.00,,,0.00,meteohub,2013-01-02 01:32:00,
2013-01-01 20:37:00,44.8,37.0,30.01,South,180,2.0,5.0,74,0.00,,,0.00,meteohub,2013-01-02 01:37:00,
2013-01-01 20:42:00,44.8,37.0,30.01,NW,315,2.0,4.0,74,0.00,,,0.00,meteohub,2013-01-02 01:42:00,
2013-01-01 20:47:00,44.6,36.9,30.01,NE,45,3.0,4.0,74,0.00,,,0.00,meteohub,2013-01-02 01:47:00,
2013-01-01 20:52:00,44.6,36.9,30.01,North,0,3.0,4.0,74,0.00,,,0.00,meteohub,2013-01-02 01:52:00,
2013-01-01 20:57:00,44.4,37.0,30.01,SE,135,1.0,4.0,75,0.00,,,0.00,meteohub,2013-01-02 01:57:00,
2013-01-01 21:02:00,44.2,37.2,30.01,SW,225,2.0,4.0,76,0.00,,,0.00,meteohub,2013-01-02 02:02:00,
2013-01-01 21:07:00,44.2,37.2,30.01,SW,225,2.0,4.0,76,0.00,,,0.00,meteohub,2013-01-02 02:07:00,
2013-01-01 21:12:00,43.5,37.0,30.01,North,0,1.0,4.0,78,0.00,,,0.00,meteohub,2013-01-02 02:12:00,
2013-01-01 21:17:00,43.3,37.2,30.02,West,270,4.0,4.0,79,0.00,,,0.00,meteohub,2013-01-02 02:17:00,
2013-01-01 21:22:00,43.0,37.2,30.02,NW,315,4.0,4.0,80,0.00,,,0.00,meteohub,2013-01-02 02:22:00,
2013-01-01 21:27:00,43.0,37.2,30.02,NW,315,2.0,5.0,80,0.00,,,0.00,meteohub,2013-01-02 02:27:00,
2013-01-01 21:32:00,43.0,37.2,30.02,North,0,5.0,5.0,80,0.00,,,0.00,meteohub,2013-01-02 02:32:00,
2013-01-01 21:37:00,42.8,37.0,30.02,North,0,4.0,5.0,80,0.00,,,0.00,meteohub,2013-01-02 02:37:00,
2013-01-01 21:42:00,42.8,37.0,30.03,West,270,2.0,5.0,80,0.00,,,0.00,meteohub,2013-01-02 02:42:00,
2013-01-01 21:47:00,42.6,37.2,30.02,West,270,4.0,5.0,81,0.00,,,0.00,meteohub,2013-01-02 02:47:00,
2013-01-01 21:52:00,42.3,37.2,30.03,SW,225,5.0,5.0,82,0.00,,,0.00,meteohub,2013-01-02 02:52:00,
2013-01-01 21:57:00,42.1,37.0,30.03,SW,225,4.0,5.0,82,0.00,,,0.00,meteohub,2013-01-02 02:57:00,
2013-01-01 22:02:00,41.9,37.0,30.04,WNW,293,5.0,5.0,83,0.00,,,0.00,meteohub,2013-01-02 03:02:00,
2013-01-01 22:07:00,41.7,36.9,30.03,SW,225,5.0,5.0,83,0.00,,,0.00,meteohub,2013-01-02 03:07:00,
2013-01-01 22:12:00,41.7,36.9,30.02,NE,45,5.0,8.0,83,0.00,,,0.00,meteohub,2013-01-02 03:12:00,
2013-01-01 22:17:00,41.5,36.7,30.03,SW,225,7.0,8.0,83,0.00,,,0.00,meteohub,2013-01-02 03:17:00,
2013-01-01 22:22:00,41.5,36.5,30.03,NW,315,8.0,9.0,82,0.00,,,0.00,meteohub,2013-01-02 03:22:00,
2013-01-01 22:27:00,41.5,36.5,30.03,South,180,10.0,10.0,82,0.00,,,0.00,meteohub,2013-01-02 03:27:00,
2013-01-01 22:32:00,41.5,36.5,30.03,SE,135,4.0,10.0,82,0.01,,,0.01,meteohub,2013-01-02 03:32:00,
2013-01-01 22:37:00,41.5,36.7,30.03,NW,315,8.0,10.0,83,0.01,,,0.01,meteohub,2013-01-02 03:37:00,
2013-01-01 22:42:00,41.4,36.5,30.03,North,0,6.0,11.0,83,0.01,,,0.01,meteohub,2013-01-02 03:42:00,
2013-01-01 22:47:00,41.4,36.5,30.02,SW,225,8.0,11.0,83,0.01,,,0.01,meteohub,2013-01-02 03:47:00,
2013-01-01 22:52:00,41.2,36.5,30.02,NE,45,6.0,11.0,83,0.02,,,0.02,meteohub,2013-01-02 03:52:00,
2013-01-01 22:57:00,41.0,36.3,30.03,NE,45,8.0,9.0,83,0.02,,,0.02,meteohub,2013-01-02 03:57:00,
2013-01-01 23:02:00,41.0,36.3,30.03,SW,225,2.0,8.0,83,0.02,,,0.02,meteohub,2013-01-02 04:02:00,
2013-01-01 23:07:00,41.0,36.3,30.03,SW,225,2.0,8.0,83,0.02,,,0.02,meteohub,2013-01-02 04:07:00,
2013-01-01 23:12:00,41.0,36.3,30.02,SW,225,5.0,8.0,83,0.02,,,0.02,meteohub,2013-01-02 04:12:00,
2013-01-01 23:17:00,41.2,36.5,30.01,South,180,2.0,5.0,83,0.02,,,0.02,meteohub,2013-01-02 04:17:00,
2013-01-01 23:22:00,41.2,36.5,30.01,NW,315,2.0,5.0,83,0.02,,,0.02,meteohub,2013-01-02 04:22:00,
2013-01-01 23:27:00,41.2,36.5,30.02,South,180,2.0,5.0,83,0.01,,,0.02,meteohub,2013-01-02 04:27:00,
2013-01-01 23:32:00,41.0,36.5,30.02,SW,225,2.0,5.0,84,0.01,,,0.02,meteohub,2013-01-02 04:32:00,
2013-01-01 23:37:00,40.8,36.7,30.02,East,90,0.0,5.0,85,0.01,,,0.02,meteohub,2013-01-02 04:37:00,
2013-01-01 23:42:00,40.8,36.7,30.03,NW,315,2.0,4.0,85,0.01,,,0.02,meteohub,2013-01-02 04:42:00,
2013-01-01 23:47:00,40.8,36.7,30.02,SE,135,0.0,2.0,85,0.01,,,0.02,meteohub,2013-01-02 04:47:00,
2013-01-01 23:52:00,40.8,36.7,30.02,NW,315,1.0,2.0,85,0.00,,,0.02,meteohub,2013-01-02 04:52:00,
2013-01-01 23:57:00,40.6,36.9,30.02,West,270,1.0,2.0,86,0.00,,,0.02,meteohub,2013-01-02 04:57:00,